sensor_id;sensor_type;location;lat;lon;timestamp;P1;durP1;ratioP1;P2;durP2;ratioP2
6693;SDS011;3384;42.628;23.380;2022-11-14T00:00:32;12.10;;;9.27;;
6693;SDS011;3384;42.628;23.380;2022-11-14T00:03:00;12.83;;;9.70;;
6693;SDS011;3384;42.628;23.380;2022-11-14T00:05:29;13.17;;;9.90;;
6693;SDS011;3384;42.628;23.380;2022-11-14T00:07:56;11.73;;;9.90;;
6693;SDS011;3384;42.628;23.380;2022-11-14T00:10:23;13.30;;;10.47;;
6693;SDS011;3384;42.628;23.380;2022-11-14T00:12:50;14.20;;;10.83;;
6693;SDS011;3384;42.628;23.380;2022-11-14T00:15:17;13.80;;;11.17;;
6693;SDS011;3384;42.628;23.380;2022-11-14T00:17:44;12.77;;;9.87;;
6693;SDS011;3384;42.628;23.380;2022-11-14T00:20:12;12.47;;;10.80;;
6693;SDS011;3384;42.628;23.380;2022-11-14T00:22:39;11.93;;;10.07;;
6693;SDS011;3384;42.628;23.380;2022-11-14T00:25:06;10.87;;;9.57;;
6693;SDS011;3384;42.628;23.380;2022-11-14T00:27:34;11.50;;;10.00;;
6693;SDS011;3384;42.628;23.380;2022-11-14T00:30:01;13.80;;;11.00;;
6693;SDS011;3384;42.628;23.380;2022-11-14T00:32:28;13.40;;;10.30;;
6693;SDS011;3384;42.628;23.380;2022-11-14T00:34:56;12.03;;;9.47;;
6693;SDS011;3384;42.628;23.380;2022-11-14T00:37:24;11.53;;;8.10;;
6693;SDS011;3384;42.628;23.380;2022-11-14T00:39:51;12.13;;;10.07;;
6693;SDS011;3384;42.628;23.380;2022-11-14T00:42:18;10.63;;;9.60;;
6693;SDS011;3384;42.628;23.380;2022-11-14T00:44:45;10.73;;;9.23;;
6693;SDS011;3384;42.628;23.380;2022-11-14T00:47:12;11.73;;;10.00;;
6693;SDS011;3384;42.628;23.380;2022-11-14T00:49:38;9.80;;;8.80;;
6693;SDS011;3384;42.628;23.380;2022-11-14T00:52:05;11.43;;;10.33;;
6693;SDS011;3384;42.628;23.380;2022-11-14T00:54:34;13.90;;;9.73;;
6693;SDS011;3384;42.628;23.380;2022-11-14T00:57:00;12.07;;;10.80;;
6693;SDS011;3384;42.628;23.380;2022-11-14T00:59:32;17.13;;;11.67;;
6693;SDS011;3384;42.628;23.380;2022-11-14T01:01:59;12.67;;;11.03;;
6693;SDS011;3384;42.628;23.380;2022-11-14T01:04:27;11.50;;;10.30;;
6693;SDS011;3384;42.628;23.380;2022-11-14T01:06:53;13.80;;;11.07;;
6693;SDS011;3384;42.628;23.380;2022-11-14T01:09:20;12.53;;;11.30;;
6693;SDS011;3384;42.628;23.380;2022-11-14T01:11:49;14.93;;;10.40;;
6693;SDS011;3384;42.628;23.380;2022-11-14T01:14:15;12.43;;;10.93;;
6693;SDS011;3384;42.628;23.380;2022-11-14T01:16:42;11.73;;;9.90;;
6693;SDS011;3384;42.628;23.380;2022-11-14T01:19:09;12.57;;;10.43;;
6693;SDS011;3384;42.628;23.380;2022-11-14T01:21:36;13.83;;;9.77;;
6693;SDS011;3384;42.628;23.380;2022-11-14T01:24:03;11.23;;;9.87;;
6693;SDS011;3384;42.628;23.380;2022-11-14T01:26:30;12.13;;;10.70;;
6693;SDS011;3384;42.628;23.380;2022-11-14T01:28:59;12.67;;;9.87;;
6693;SDS011;3384;42.628;23.380;2022-11-14T01:31:26;9.70;;;8.63;;
6693;SDS011;3384;42.628;23.380;2022-11-14T01:33:53;13.53;;;9.93;;
6693;SDS011;3384;42.628;23.380;2022-11-14T01:36:20;10.30;;;9.20;;
6693;SDS011;3384;42.628;23.380;2022-11-14T01:38:50;14.00;;;8.83;;
6693;SDS011;3384;42.628;23.380;2022-11-14T01:41:18;10.20;;;8.30;;
6693;SDS011;3384;42.628;23.380;2022-11-14T01:43:45;9.47;;;8.17;;
6693;SDS011;3384;42.628;23.380;2022-11-14T01:46:15;8.63;;;7.80;;
6693;SDS011;3384;42.628;23.380;2022-11-14T01:48:48;15.23;;;9.90;;
6693;SDS011;3384;42.628;23.380;2022-11-14T01:51:20;12.00;;;8.77;;
6693;SDS011;3384;42.628;23.380;2022-11-14T01:53:51;10.40;;;9.23;;
6693;SDS011;3384;42.628;23.380;2022-11-14T01:56:20;13.47;;;10.30;;
6693;SDS011;3384;42.628;23.380;2022-11-14T01:58:52;18.20;;;9.93;;
6693;SDS011;3384;42.628;23.380;2022-11-14T02:01:25;15.67;;;9.00;;
6693;SDS011;3384;42.628;23.380;2022-11-14T02:03:53;15.17;;;11.27;;
6693;SDS011;3384;42.628;23.380;2022-11-14T02:06:22;16.67;;;10.00;;
6693;SDS011;3384;42.628;23.380;2022-11-14T02:08:52;12.60;;;10.60;;
6693;SDS011;3384;42.628;23.380;2022-11-14T02:11:21;15.00;;;10.27;;
6693;SDS011;3384;42.628;23.380;2022-11-14T02:13:48;12.33;;;10.60;;
6693;SDS011;3384;42.628;23.380;2022-11-14T02:16:16;12.93;;;10.70;;
6693;SDS011;3384;42.628;23.380;2022-11-14T02:18:44;9.03;;;8.30;;
6693;SDS011;3384;42.628;23.380;2022-11-14T02:21:12;11.63;;;8.23;;
6693;SDS011;3384;42.628;23.380;2022-11-14T02:23:39;10.30;;;8.40;;
6693;SDS011;3384;42.628;23.380;2022-11-14T02:26:06;8.30;;;7.50;;
6693;SDS011;3384;42.628;23.380;2022-11-14T02:28:33;11.00;;;8.73;;
6693;SDS011;3384;42.628;23.380;2022-11-14T02:31:00;10.00;;;9.00;;
6693;SDS011;3384;42.628;23.380;2022-11-14T02:33:27;11.60;;;9.37;;
6693;SDS011;3384;42.628;23.380;2022-11-14T02:35:53;17.07;;;10.50;;
6693;SDS011;3384;42.628;23.380;2022-11-14T02:38:22;10.87;;;9.17;;
6693;SDS011;3384;42.628;23.380;2022-11-14T02:40:49;13.10;;;9.40;;
6693;SDS011;3384;42.628;23.380;2022-11-14T02:43:15;10.20;;;9.23;;
6693;SDS011;3384;42.628;23.380;2022-11-14T02:45:42;8.47;;;7.57;;
6693;SDS011;3384;42.628;23.380;2022-11-14T02:48:09;9.97;;;8.93;;
6693;SDS011;3384;42.628;23.380;2022-11-14T02:50:36;9.33;;;8.50;;
6693;SDS011;3384;42.628;23.380;2022-11-14T02:53:03;11.50;;;9.07;;
6693;SDS011;3384;42.628;23.380;2022-11-14T02:55:31;9.10;;;8.20;;
6693;SDS011;3384;42.628;23.380;2022-11-14T02:57:58;11.17;;;9.67;;
6693;SDS011;3384;42.628;23.380;2022-11-14T03:00:25;11.80;;;9.50;;
6693;SDS011;3384;42.628;23.380;2022-11-14T03:02:52;8.83;;;7.97;;
6693;SDS011;3384;42.628;23.380;2022-11-14T03:05:19;8.93;;;8.13;;
6693;SDS011;3384;42.628;23.380;2022-11-14T03:07:46;10.03;;;9.03;;
6693;SDS011;3384;42.628;23.380;2022-11-14T03:10:13;17.83;;;7.97;;
6693;SDS011;3384;42.628;23.380;2022-11-14T03:12:41;9.97;;;9.03;;
6693;SDS011;3384;42.628;23.380;2022-11-14T03:15:08;13.10;;;9.10;;
6693;SDS011;3384;42.628;23.380;2022-11-14T03:17:35;15.43;;;10.87;;
6693;SDS011;3384;42.628;23.380;2022-11-14T03:20:03;12.17;;;9.70;;
6693;SDS011;3384;42.628;23.380;2022-11-14T03:22:31;9.43;;;8.43;;
6693;SDS011;3384;42.628;23.380;2022-11-14T03:24:57;12.83;;;9.07;;
6693;SDS011;3384;42.628;23.380;2022-11-14T03:27:24;15.67;;;9.60;;
6693;SDS011;3384;42.628;23.380;2022-11-14T03:29:52;15.33;;;11.10;;
6693;SDS011;3384;42.628;23.380;2022-11-14T03:32:19;17.23;;;12.80;;
6693;SDS011;3384;42.628;23.380;2022-11-14T03:34:46;20.00;;;14.00;;
6693;SDS011;3384;42.628;23.380;2022-11-14T03:37:13;22.77;;;15.17;;
6693;SDS011;3384;42.628;23.380;2022-11-14T03:39:40;21.80;;;15.93;;
6693;SDS011;3384;42.628;23.380;2022-11-14T03:42:07;26.33;;;19.00;;
6693;SDS011;3384;42.628;23.380;2022-11-14T03:44:33;27.93;;;18.83;;
6693;SDS011;3384;42.628;23.380;2022-11-14T03:47:02;38.90;;;22.17;;
6693;SDS011;3384;42.628;23.380;2022-11-14T03:49:29;35.13;;;20.43;;
6693;SDS011;3384;42.628;23.380;2022-11-14T03:51:55;37.80;;;20.73;;
6693;SDS011;3384;42.628;23.380;2022-11-14T03:54:22;36.67;;;20.80;;
6693;SDS011;3384;42.628;23.380;2022-11-14T03:56:49;35.27;;;21.60;;
6693;SDS011;3384;42.628;23.380;2022-11-14T03:59:16;36.33;;;21.57;;
6693;SDS011;3384;42.628;23.380;2022-11-14T04:01:43;32.57;;;19.40;;
6693;SDS011;3384;42.628;23.380;2022-11-14T04:04:11;26.97;;;18.27;;
6693;SDS011;3384;42.628;23.380;2022-11-14T04:06:38;28.13;;;17.30;;
6693;SDS011;3384;42.628;23.380;2022-11-14T04:09:05;24.57;;;16.67;;
6693;SDS011;3384;42.628;23.380;2022-11-14T04:11:32;20.43;;;15.00;;
6693;SDS011;3384;42.628;23.380;2022-11-14T04:13:59;20.17;;;14.47;;
6693;SDS011;3384;42.628;23.380;2022-11-14T04:16:26;22.20;;;16.27;;
6693;SDS011;3384;42.628;23.380;2022-11-14T04:18:53;21.10;;;15.40;;
6693;SDS011;3384;42.628;23.380;2022-11-14T04:21:21;20.37;;;15.27;;
6693;SDS011;3384;42.628;23.380;2022-11-14T04:23:48;23.00;;;15.90;;
6693;SDS011;3384;42.628;23.380;2022-11-14T04:26:15;20.90;;;13.97;;
6693;SDS011;3384;42.628;23.380;2022-11-14T04:28:42;20.97;;;14.50;;
6693;SDS011;3384;42.628;23.380;2022-11-14T04:31:09;18.37;;;13.10;;
6693;SDS011;3384;42.628;23.380;2022-11-14T04:33:35;17.40;;;13.60;;
6693;SDS011;3384;42.628;23.380;2022-11-14T04:36:02;22.70;;;12.70;;
6693;SDS011;3384;42.628;23.380;2022-11-14T04:38:31;17.23;;;13.20;;
6693;SDS011;3384;42.628;23.380;2022-11-14T04:40:58;17.07;;;13.63;;
6693;SDS011;3384;42.628;23.380;2022-11-14T04:43:25;17.47;;;13.47;;
6693;SDS011;3384;42.628;23.380;2022-11-14T04:45:52;15.43;;;12.63;;
6693;SDS011;3384;42.628;23.380;2022-11-14T04:48:18;17.77;;;14.57;;
6693;SDS011;3384;42.628;23.380;2022-11-14T04:50:45;14.83;;;12.63;;
6693;SDS011;3384;42.628;23.380;2022-11-14T04:53:12;23.90;;;13.27;;
6693;SDS011;3384;42.628;23.380;2022-11-14T04:55:40;18.67;;;12.70;;
6693;SDS011;3384;42.628;23.380;2022-11-14T04:58:09;13.50;;;11.87;;
6693;SDS011;3384;42.628;23.380;2022-11-14T05:00:36;15.00;;;11.27;;
6693;SDS011;3384;42.628;23.380;2022-11-14T05:03:03;10.60;;;9.40;;
6693;SDS011;3384;42.628;23.380;2022-11-14T05:05:30;13.20;;;9.50;;
6693;SDS011;3384;42.628;23.380;2022-11-14T05:07:57;14.50;;;10.70;;
6693;SDS011;3384;42.628;23.380;2022-11-14T05:10:24;16.67;;;10.40;;
6693;SDS011;3384;42.628;23.380;2022-11-14T05:12:53;14.63;;;11.93;;
6693;SDS011;3384;42.628;23.380;2022-11-14T05:15:20;20.83;;;13.17;;
6693;SDS011;3384;42.628;23.380;2022-11-14T05:17:47;15.57;;;11.60;;
6693;SDS011;3384;42.628;23.380;2022-11-14T05:20:14;16.13;;;11.63;;
6693;SDS011;3384;42.628;23.380;2022-11-14T05:22:41;24.23;;;13.33;;
6693;SDS011;3384;42.628;23.380;2022-11-14T05:25:08;44.07;;;15.40;;
6693;SDS011;3384;42.628;23.380;2022-11-14T05:27:36;26.13;;;15.87;;
6693;SDS011;3384;42.628;23.380;2022-11-14T05:30:05;28.37;;;16.03;;
6693;SDS011;3384;42.628;23.380;2022-11-14T05:32:32;51.73;;;17.83;;
6693;SDS011;3384;42.628;23.380;2022-11-14T05:34:59;34.30;;;18.43;;
6693;SDS011;3384;42.628;23.380;2022-11-14T05:37:26;38.30;;;18.03;;
6693;SDS011;3384;42.628;23.380;2022-11-14T05:39:53;39.97;;;21.70;;
6693;SDS011;3384;42.628;23.380;2022-11-14T05:42:20;83.00;;;20.30;;
6693;SDS011;3384;42.628;23.380;2022-11-14T05:44:56;49.67;;;18.70;;
6693;SDS011;3384;42.628;23.380;2022-11-14T05:47:25;72.90;;;20.37;;
6693;SDS011;3384;42.628;23.380;2022-11-14T05:49:53;88.00;;;21.80;;
6693;SDS011;3384;42.628;23.380;2022-11-14T05:52:20;107.60;;;19.37;;
6693;SDS011;3384;42.628;23.380;2022-11-14T05:54:47;90.73;;;21.40;;
6693;SDS011;3384;42.628;23.380;2022-11-14T05:57:14;51.40;;;16.83;;
6693;SDS011;3384;42.628;23.380;2022-11-14T05:59:42;114.23;;;19.33;;
6693;SDS011;3384;42.628;23.380;2022-11-14T06:02:09;100.87;;;16.40;;
6693;SDS011;3384;42.628;23.380;2022-11-14T06:04:37;66.50;;;16.80;;
6693;SDS011;3384;42.628;23.380;2022-11-14T06:07:04;74.97;;;18.00;;
6693;SDS011;3384;42.628;23.380;2022-11-14T06:09:31;117.80;;;16.17;;
6693;SDS011;3384;42.628;23.380;2022-11-14T06:11:57;87.60;;;17.10;;
6693;SDS011;3384;42.628;23.380;2022-11-14T06:14:24;37.53;;;17.60;;
6693;SDS011;3384;42.628;23.380;2022-11-14T06:16:51;50.47;;;17.57;;
6693;SDS011;3384;42.628;23.380;2022-11-14T06:19:18;53.73;;;17.27;;
6693;SDS011;3384;42.628;23.380;2022-11-14T06:21:47;43.27;;;16.57;;
6693;SDS011;3384;42.628;23.380;2022-11-14T06:24:14;54.80;;;17.23;;
6693;SDS011;3384;42.628;23.380;2022-11-14T06:26:41;71.80;;;18.20;;
6693;SDS011;3384;42.628;23.380;2022-11-14T06:29:08;65.13;;;16.40;;
6693;SDS011;3384;42.628;23.380;2022-11-14T06:31:35;61.30;;;17.93;;
6693;SDS011;3384;42.628;23.380;2022-11-14T06:34:03;28.10;;;17.33;;
6693;SDS011;3384;42.628;23.380;2022-11-14T06:36:30;41.83;;;17.60;;
6693;SDS011;3384;42.628;23.380;2022-11-14T06:38:58;44.97;;;17.13;;
6693;SDS011;3384;42.628;23.380;2022-11-14T06:41:25;25.17;;;15.40;;
6693;SDS011;3384;42.628;23.380;2022-11-14T06:43:52;36.60;;;16.90;;
6693;SDS011;3384;42.628;23.380;2022-11-14T06:46:19;29.50;;;16.07;;
6693;SDS011;3384;42.628;23.380;2022-11-14T06:48:48;22.07;;;13.70;;
6693;SDS011;3384;42.628;23.380;2022-11-14T06:51:16;27.60;;;16.17;;
6693;SDS011;3384;42.628;23.380;2022-11-14T06:53:44;27.13;;;18.30;;
6693;SDS011;3384;42.628;23.380;2022-11-14T06:56:13;30.90;;;16.50;;
6693;SDS011;3384;42.628;23.380;2022-11-14T06:58:41;22.10;;;14.23;;
6693;SDS011;3384;42.628;23.380;2022-11-14T07:01:10;20.23;;;13.63;;
6693;SDS011;3384;42.628;23.380;2022-11-14T07:03:39;25.73;;;14.03;;
6693;SDS011;3384;42.628;23.380;2022-11-14T07:06:07;24.20;;;15.60;;
6693;SDS011;3384;42.628;23.380;2022-11-14T07:08:35;23.63;;;16.07;;
6693;SDS011;3384;42.628;23.380;2022-11-14T07:11:04;23.63;;;15.20;;
6693;SDS011;3384;42.628;23.380;2022-11-14T07:13:48;34.37;;;16.93;;
6693;SDS011;3384;42.628;23.380;2022-11-14T07:16:16;32.27;;;15.80;;
6693;SDS011;3384;42.628;23.380;2022-11-14T07:18:43;32.20;;;17.50;;
6693;SDS011;3384;42.628;23.380;2022-11-14T07:21:10;32.60;;;15.23;;
6693;SDS011;3384;42.628;23.380;2022-11-14T07:23:37;42.90;;;17.87;;
6693;SDS011;3384;42.628;23.380;2022-11-14T07:26:06;42.60;;;17.67;;
6693;SDS011;3384;42.628;23.380;2022-11-14T07:28:35;36.97;;;17.60;;
6693;SDS011;3384;42.628;23.380;2022-11-14T07:31:05;46.97;;;19.90;;
6693;SDS011;3384;42.628;23.380;2022-11-14T07:33:33;49.57;;;19.00;;
6693;SDS011;3384;42.628;23.380;2022-11-14T07:36:00;45.37;;;19.00;;
6693;SDS011;3384;42.628;23.380;2022-11-14T07:38:29;34.63;;;18.87;;
6693;SDS011;3384;42.628;23.380;2022-11-14T07:40:56;30.30;;;19.60;;
6693;SDS011;3384;42.628;23.380;2022-11-14T07:43:24;43.23;;;20.07;;
6693;SDS011;3384;42.628;23.380;2022-11-14T07:45:51;45.43;;;20.73;;
6693;SDS011;3384;42.628;23.380;2022-11-14T07:48:20;46.47;;;18.60;;
6693;SDS011;3384;42.628;23.380;2022-11-14T07:50:47;31.17;;;19.53;;
6693;SDS011;3384;42.628;23.380;2022-11-14T07:53:14;36.23;;;20.07;;
6693;SDS011;3384;42.628;23.380;2022-11-14T07:55:42;46.13;;;18.83;;
6693;SDS011;3384;42.628;23.380;2022-11-14T07:58:09;35.17;;;21.13;;
6693;SDS011;3384;42.628;23.380;2022-11-14T08:00:36;54.57;;;21.70;;
6693;SDS011;3384;42.628;23.380;2022-11-14T08:03:03;50.23;;;20.40;;
6693;SDS011;3384;42.628;23.380;2022-11-14T08:05:33;48.47;;;19.37;;
6693;SDS011;3384;42.628;23.380;2022-11-14T08:08:00;29.80;;;19.93;;
6693;SDS011;3384;42.628;23.380;2022-11-14T08:10:27;31.80;;;18.57;;
6693;SDS011;3384;42.628;23.380;2022-11-14T08:12:57;27.73;;;18.17;;
6693;SDS011;3384;42.628;23.380;2022-11-14T08:15:25;54.93;;;19.03;;
6693;SDS011;3384;42.628;23.380;2022-11-14T08:17:55;71.30;;;20.23;;
6693;SDS011;3384;42.628;23.380;2022-11-14T08:20:23;43.03;;;18.93;;
6693;SDS011;3384;42.628;23.380;2022-11-14T08:22:52;44.03;;;19.50;;
6693;SDS011;3384;42.628;23.380;2022-11-14T08:25:18;54.37;;;19.13;;
6693;SDS011;3384;42.628;23.380;2022-11-14T08:27:47;33.37;;;18.93;;
6693;SDS011;3384;42.628;23.380;2022-11-14T08:30:14;35.87;;;21.10;;
6693;SDS011;3384;42.628;23.380;2022-11-14T08:32:42;31.27;;;18.33;;
6693;SDS011;3384;42.628;23.380;2022-11-14T08:35:08;63.43;;;21.37;;
6693;SDS011;3384;42.628;23.380;2022-11-14T08:37:35;42.23;;;21.40;;
6693;SDS011;3384;42.628;23.380;2022-11-14T08:40:04;38.90;;;21.70;;
6693;SDS011;3384;42.628;23.380;2022-11-14T08:42:31;36.50;;;21.80;;
6693;SDS011;3384;42.628;23.380;2022-11-14T08:44:58;36.00;;;20.60;;
6693;SDS011;3384;42.628;23.380;2022-11-14T08:47:25;36.23;;;21.40;;
6693;SDS011;3384;42.628;23.380;2022-11-14T08:49:52;69.70;;;20.50;;
6693;SDS011;3384;42.628;23.380;2022-11-14T08:52:19;45.90;;;23.60;;
6693;SDS011;3384;42.628;23.380;2022-11-14T08:54:46;41.67;;;22.07;;
6693;SDS011;3384;42.628;23.380;2022-11-14T08:57:15;51.03;;;22.90;;
6693;SDS011;3384;42.628;23.380;2022-11-14T08:59:41;52.67;;;23.37;;
6693;SDS011;3384;42.628;23.380;2022-11-14T09:02:09;41.20;;;23.00;;
6693;SDS011;3384;42.628;23.380;2022-11-14T09:04:35;45.93;;;22.53;;
6693;SDS011;3384;42.628;23.380;2022-11-14T09:07:02;38.87;;;22.43;;
6693;SDS011;3384;42.628;23.380;2022-11-14T09:09:29;33.77;;;20.97;;
6693;SDS011;3384;42.628;23.380;2022-11-14T09:11:56;37.07;;;21.60;;
6693;SDS011;3384;42.628;23.380;2022-11-14T09:14:24;42.70;;;21.93;;
6693;SDS011;3384;42.628;23.380;2022-11-14T09:16:51;49.80;;;24.10;;
6693;SDS011;3384;42.628;23.380;2022-11-14T09:19:18;50.27;;;24.00;;
6693;SDS011;3384;42.628;23.380;2022-11-14T09:21:45;36.73;;;23.20;;
6693;SDS011;3384;42.628;23.380;2022-11-14T09:24:12;42.20;;;22.20;;
6693;SDS011;3384;42.628;23.380;2022-11-14T09:26:40;41.67;;;22.10;;
6693;SDS011;3384;42.628;23.380;2022-11-14T09:29:07;40.67;;;19.97;;
6693;SDS011;3384;42.628;23.380;2022-11-14T09:31:35;31.67;;;19.77;;
6693;SDS011;3384;42.628;23.380;2022-11-14T09:34:02;38.33;;;23.77;;
6693;SDS011;3384;42.628;23.380;2022-11-14T09:36:29;43.17;;;25.07;;
6693;SDS011;3384;42.628;23.380;2022-11-14T09:38:56;47.80;;;22.90;;
6693;SDS011;3384;42.628;23.380;2022-11-14T09:41:23;44.50;;;25.13;;
6693;SDS011;3384;42.628;23.380;2022-11-14T09:44:03;40.10;;;24.00;;
6693;SDS011;3384;42.628;23.380;2022-11-14T09:46:41;46.93;;;23.47;;
6693;SDS011;3384;42.628;23.380;2022-11-14T09:49:15;49.20;;;24.90;;
6693;SDS011;3384;42.628;23.380;2022-11-14T09:51:51;45.50;;;23.17;;
6693;SDS011;3384;42.628;23.380;2022-11-14T09:54:25;43.83;;;24.77;;
6693;SDS011;3384;42.628;23.380;2022-11-14T09:56:54;44.40;;;24.87;;
6693;SDS011;3384;42.628;23.380;2022-11-14T09:59:20;53.33;;;28.67;;
6693;SDS011;3384;42.628;23.380;2022-11-14T10:01:50;61.80;;;25.90;;
6693;SDS011;3384;42.628;23.380;2022-11-14T10:04:27;46.83;;;26.17;;
6693;SDS011;3384;42.628;23.380;2022-11-14T10:07:07;50.30;;;25.97;;
6693;SDS011;3384;42.628;23.380;2022-11-14T10:09:49;48.57;;;26.07;;
6693;SDS011;3384;42.628;23.380;2022-11-14T10:12:21;48.60;;;24.37;;
6693;SDS011;3384;42.628;23.380;2022-11-14T10:14:55;45.73;;;23.50;;
6693;SDS011;3384;42.628;23.380;2022-11-14T10:20:30;47.50;;;24.97;;
6693;SDS011;3384;42.628;23.380;2022-11-14T10:23:07;49.20;;;26.90;;
6693;SDS011;3384;42.628;23.380;2022-11-14T10:25:46;56.20;;;27.17;;
6693;SDS011;3384;42.628;23.380;2022-11-14T10:28:22;48.90;;;25.90;;
6693;SDS011;3384;42.628;23.380;2022-11-14T10:31:02;48.97;;;25.00;;
6693;SDS011;3384;42.628;23.380;2022-11-14T10:33:38;52.47;;;26.80;;
6693;SDS011;3384;42.628;23.380;2022-11-14T10:36:16;48.10;;;25.03;;
6693;SDS011;3384;42.628;23.380;2022-11-14T10:38:53;49.83;;;25.90;;
6693;SDS011;3384;42.628;23.380;2022-11-14T10:41:27;47.80;;;25.53;;
6693;SDS011;3384;42.628;23.380;2022-11-14T10:43:54;49.00;;;24.50;;
6693;SDS011;3384;42.628;23.380;2022-11-14T10:46:22;45.10;;;26.10;;
6693;SDS011;3384;42.628;23.380;2022-11-14T10:48:54;56.53;;;26.00;;
6693;SDS011;3384;42.628;23.380;2022-11-14T10:51:23;56.37;;;27.97;;
6693;SDS011;3384;42.628;23.380;2022-11-14T10:53:56;45.63;;;25.00;;
6693;SDS011;3384;42.628;23.380;2022-11-14T10:56:28;53.07;;;27.77;;
6693;SDS011;3384;42.628;23.380;2022-11-14T10:58:54;50.47;;;27.13;;
6693;SDS011;3384;42.628;23.380;2022-11-14T11:01:31;57.20;;;27.90;;
6693;SDS011;3384;42.628;23.380;2022-11-14T11:04:11;54.07;;;28.43;;
6693;SDS011;3384;42.628;23.380;2022-11-14T11:06:51;48.13;;;26.80;;
6693;SDS011;3384;42.628;23.380;2022-11-14T11:09:20;49.10;;;26.47;;
6693;SDS011;3384;42.628;23.380;2022-11-14T11:12:06;54.37;;;26.70;;
6693;SDS011;3384;42.628;23.380;2022-11-14T11:14:39;52.40;;;28.20;;
6693;SDS011;3384;42.628;23.380;2022-11-14T11:17:14;48.63;;;26.80;;
6693;SDS011;3384;42.628;23.380;2022-11-14T11:19:45;44.97;;;24.37;;
6693;SDS011;3384;42.628;23.380;2022-11-14T11:22:23;44.10;;;26.27;;
6693;SDS011;3384;42.628;23.380;2022-11-14T11:25:22;43.60;;;25.80;;
6693;SDS011;3384;42.628;23.380;2022-11-14T11:28:04;54.20;;;27.97;;
6693;SDS011;3384;42.628;23.380;2022-11-14T11:30:33;56.07;;;28.83;;
6693;SDS011;3384;42.628;23.380;2022-11-14T11:33:13;44.00;;;25.83;;
6693;SDS011;3384;42.628;23.380;2022-11-14T11:35:43;44.70;;;24.33;;
6693;SDS011;3384;42.628;23.380;2022-11-14T11:38:13;46.53;;;25.40;;
6693;SDS011;3384;42.628;23.380;2022-11-14T11:40:42;51.33;;;27.13;;
6693;SDS011;3384;42.628;23.380;2022-11-14T11:43:13;59.57;;;27.10;;
6693;SDS011;3384;42.628;23.380;2022-11-14T11:45:43;46.27;;;26.60;;
6693;SDS011;3384;42.628;23.380;2022-11-14T11:48:14;49.40;;;24.40;;
6693;SDS011;3384;42.628;23.380;2022-11-14T11:50:45;52.43;;;27.03;;
6693;SDS011;3384;42.628;23.380;2022-11-14T11:53:16;47.93;;;25.07;;
6693;SDS011;3384;42.628;23.380;2022-11-14T11:55:48;51.53;;;24.80;;
6693;SDS011;3384;42.628;23.380;2022-11-14T11:58:19;50.53;;;27.07;;
6693;SDS011;3384;42.628;23.380;2022-11-14T12:00:49;39.80;;;24.47;;
6693;SDS011;3384;42.628;23.380;2022-11-14T12:03:19;50.13;;;24.90;;
6693;SDS011;3384;42.628;23.380;2022-11-14T12:05:51;55.60;;;25.83;;
6693;SDS011;3384;42.628;23.380;2022-11-14T12:08:29;47.37;;;25.40;;
6693;SDS011;3384;42.628;23.380;2022-11-14T12:11:03;47.17;;;24.00;;
6693;SDS011;3384;42.628;23.380;2022-11-14T12:16:38;49.40;;;25.87;;
6693;SDS011;3384;42.628;23.380;2022-11-14T12:19:31;44.57;;;25.47;;
6693;SDS011;3384;42.628;23.380;2022-11-14T12:22:30;48.87;;;26.10;;
6693;SDS011;3384;42.628;23.380;2022-11-14T12:25:31;51.20;;;27.00;;
6693;SDS011;3384;42.628;23.380;2022-11-14T12:28:13;49.93;;;28.10;;
6693;SDS011;3384;42.628;23.380;2022-11-14T12:30:49;50.23;;;27.33;;
6693;SDS011;3384;42.628;23.380;2022-11-14T12:33:22;56.83;;;27.90;;
6693;SDS011;3384;42.628;23.380;2022-11-14T12:35:52;61.03;;;28.60;;
6693;SDS011;3384;42.628;23.380;2022-11-14T12:38:23;47.50;;;27.30;;
6693;SDS011;3384;42.628;23.380;2022-11-14T12:40:53;50.20;;;28.50;;
6693;SDS011;3384;42.628;23.380;2022-11-14T12:43:25;56.27;;;29.70;;
6693;SDS011;3384;42.628;23.380;2022-11-14T12:45:57;58.17;;;28.27;;
6693;SDS011;3384;42.628;23.380;2022-11-14T12:48:29;46.40;;;26.70;;
6693;SDS011;3384;42.628;23.380;2022-11-14T12:50:58;61.23;;;30.93;;
6693;SDS011;3384;42.628;23.380;2022-11-14T12:53:40;42.27;;;27.20;;
6693;SDS011;3384;42.628;23.380;2022-11-14T12:56:36;45.77;;;27.63;;
6693;SDS011;3384;42.628;23.380;2022-11-14T13:02:25;56.00;;;27.70;;
6693;SDS011;3384;42.628;23.380;2022-11-14T13:08:15;65.57;;;29.00;;
6693;SDS011;3384;42.628;23.380;2022-11-14T13:14:19;50.40;;;26.43;;
6693;SDS011;3384;42.628;23.380;2022-11-14T13:20:26;56.87;;;28.47;;
6693;SDS011;3384;42.628;23.380;2022-11-14T13:26:42;59.57;;;27.00;;
6693;SDS011;3384;42.628;23.380;2022-11-14T13:35:19;60.80;;;28.27;;
6693;SDS011;3384;42.628;23.380;2022-11-14T13:38:04;59.17;;;28.97;;
6693;SDS011;3384;42.628;23.380;2022-11-14T13:40:46;49.00;;;29.40;;
6693;SDS011;3384;42.628;23.380;2022-11-14T13:43:28;48.37;;;28.23;;
6693;SDS011;3384;42.628;23.380;2022-11-14T13:46:10;43.37;;;28.13;;
6693;SDS011;3384;42.628;23.380;2022-11-14T13:48:46;52.53;;;29.40;;
6693;SDS011;3384;42.628;23.380;2022-11-14T13:51:33;54.53;;;30.27;;
6693;SDS011;3384;42.628;23.380;2022-11-14T13:54:00;52.33;;;28.63;;
6693;SDS011;3384;42.628;23.380;2022-11-14T13:56:30;61.73;;;26.70;;
6693;SDS011;3384;42.628;23.380;2022-11-14T13:59:09;56.70;;;28.03;;
6693;SDS011;3384;42.628;23.380;2022-11-14T14:01:57;56.43;;;28.63;;
6693;SDS011;3384;42.628;23.380;2022-11-14T14:04:44;54.53;;;29.13;;
6693;SDS011;3384;42.628;23.380;2022-11-14T14:07:20;48.10;;;27.27;;
6693;SDS011;3384;42.628;23.380;2022-11-14T14:09:56;58.23;;;31.13;;
6693;SDS011;3384;42.628;23.380;2022-11-14T14:12:36;75.20;;;33.27;;
6693;SDS011;3384;42.628;23.380;2022-11-14T14:15:21;57.07;;;29.23;;
6693;SDS011;3384;42.628;23.380;2022-11-14T14:17:55;63.23;;;30.33;;
6693;SDS011;3384;42.628;23.380;2022-11-14T14:20:30;55.37;;;30.27;;
6693;SDS011;3384;42.628;23.380;2022-11-14T14:23:13;53.27;;;30.97;;
6693;SDS011;3384;42.628;23.380;2022-11-14T14:25:47;74.60;;;32.43;;
6693;SDS011;3384;42.628;23.380;2022-11-14T14:28:24;57.83;;;32.70;;
6693;SDS011;3384;42.628;23.380;2022-11-14T14:31:08;69.50;;;32.40;;
6693;SDS011;3384;42.628;23.380;2022-11-14T14:33:40;64.30;;;32.93;;
6693;SDS011;3384;42.628;23.380;2022-11-14T14:36:22;66.93;;;32.63;;
6693;SDS011;3384;42.628;23.380;2022-11-14T14:38:50;76.47;;;34.00;;
6693;SDS011;3384;42.628;23.380;2022-11-14T14:41:37;82.57;;;34.97;;
6693;SDS011;3384;42.628;23.380;2022-11-14T14:44:04;77.63;;;35.67;;
6693;SDS011;3384;42.628;23.380;2022-11-14T14:46:33;80.07;;;33.50;;
6693;SDS011;3384;42.628;23.380;2022-11-14T14:49:00;73.93;;;34.37;;
6693;SDS011;3384;42.628;23.380;2022-11-14T14:51:30;82.90;;;37.40;;
6693;SDS011;3384;42.628;23.380;2022-11-14T14:53:58;66.70;;;35.50;;
6693;SDS011;3384;42.628;23.380;2022-11-14T14:56:25;63.87;;;33.67;;
6693;SDS011;3384;42.628;23.380;2022-11-14T14:58:52;89.33;;;36.17;;
6693;SDS011;3384;42.628;23.380;2022-11-14T15:01:20;73.90;;;31.17;;
6693;SDS011;3384;42.628;23.380;2022-11-14T15:03:51;63.13;;;33.00;;
6693;SDS011;3384;42.628;23.380;2022-11-14T15:06:25;71.97;;;31.73;;
6693;SDS011;3384;42.628;23.380;2022-11-14T15:08:55;85.77;;;34.70;;
6693;SDS011;3384;42.628;23.380;2022-11-14T15:11:22;84.53;;;34.13;;
6693;SDS011;3384;42.628;23.380;2022-11-14T15:13:52;96.87;;;33.90;;
6693;SDS011;3384;42.628;23.380;2022-11-14T15:16:21;66.83;;;33.53;;
6693;SDS011;3384;42.628;23.380;2022-11-14T15:18:49;74.20;;;33.87;;
6693;SDS011;3384;42.628;23.380;2022-11-14T15:21:23;63.70;;;32.07;;